Time;durP1;ratioP1;P1;durP2;ratioP2;P2;SDS_P1;SDS_P2;PMS_P1;PMS_P2;Temp;Humidity;BMP_temperature;BMP_pressure;BME280_temperature;BME280_humidity;BME280_pressure;Samples;Min_cycle;Max_cycle;Signal;HPM_P1;HPM_P2
2023/10/16 00:01:41;;;;;;;1.38;1.27;;;;;;;;;;4997266;28;20018;-29
2023/10/16 00:04:08;;;;;;;1.60;1.50;;;;;;;;;;4980435;28;20052;-31
2023/10/16 00:06:34;;;;;;;1.25;1.17;;;;;;;;;;4997003;28;20458;-30
2023/10/16 00:09:14;;;;;;;1.52;1.42;;;;;;;;;;4997005;28;20030;-31
2023/10/16 00:11:40;;;;;;;1.27;1.25;;;;;;;;;;4996944;28;20026;-31
2023/10/16 00:14:25;;;;;;;1.20;1.20;;;;;;;;;;4996899;28;20030;-27
2023/10/16 00:16:52;;;;;;;1.40;1.30;;;;;;;;;;4997277;28;20023;-32
2023/10/16 00:19:18;;;;;;;1.67;1.58;;;;;;;;;;4997100;28;20026;-28
2023/10/16 00:21:44;;;;;;;1.45;1.40;;;;;;;;;;4997313;28;20019;-29
2023/10/16 00:24:10;;;;;;;1.48;1.38;;;;;;;;;;4996730;28;20085;-30
2023/10/16 00:26:36;;;;;;;1.40;1.30;;;;;;;;;;4996824;28;20450;-30
2023/10/16 00:31:51;;;;;;;1.05;1.05;;;;;;;;;;4996609;28;20037;-31
2023/10/16 00:34:20;;;;;;;1.05;1.05;;;;;;;;;;4996537;28;20110;-30
2023/10/16 00:36:51;;;;;;;1.40;1.35;;;;;;;;;;4996311;28;20365;-28
2023/10/16 00:39:19;;;;;;;1.30;1.20;;;;;;;;;;4996264;28;20054;-30
2023/10/16 00:41:46;;;;;;;1.40;1.30;;;;;;;;;;4996357;28;20025;-31
2023/10/16 00:44:17;;;;;;;1.27;1.27;;;;;;;;;;4996253;28;20024;-32
2023/10/16 00:46:45;;;;;;;1.50;1.40;;;;;;;;;;4996193;28;20030;-28
2023/10/16 00:49:14;;;;;;;1.30;1.30;;;;;;;;;;4996187;28;20046;-30
2023/10/16 00:51:41;;;;;;;1.40;1.30;;;;;;;;;;4996240;28;20022;-31
2023/10/16 00:54:17;;;;;;;1.42;1.33;;;;;;;;;;4996154;28;20092;-30
2023/10/16 00:56:44;;;;;;;1.58;1.20;;;;;;;;;;4996314;28;20026;-29
2023/10/16 00:59:17;;;;;;;1.50;1.40;;;;;;;;;;4996094;28;20014;-31
2023/10/16 01:01:44;;;;;;;1.10;1.10;;;;;;;;;;4996597;28;20026;-31
2023/10/16 01:04:11;;;;;;;1.15;1.13;;;;;;;;;;4996249;28;20022;-27
2023/10/16 01:06:37;;;;;;;1.60;1.50;;;;;;;;;;4995898;28;20450;-30
2023/10/16 01:09:08;;;;;;;1.27;1.20;;;;;;;;;;4996206;28;20038;-28
2023/10/16 01:11:37;;;;;;;1.55;1.45;;;;;;;;;;4978295;28;20350;-29
2023/10/16 01:14:04;;;;;;;1.58;1.48;;;;;;;;;;4996104;28;20057;-29
2023/10/16 01:16:30;;;;;;;1.38;1.27;;;;;;;;;;4995654;28;20029;-30
2023/10/16 01:19:06;;;;;;;1.40;1.30;;;;;;;;;;4978524;28;20034;-29
2023/10/16 01:21:33;;;;;;;1.30;1.20;;;;;;;;;;4995653;28;20068;-30
2023/10/16 01:24:11;;;;;;;1.40;1.30;;;;;;;;;;4995638;28;20030;-32
2023/10/16 01:26:38;;;;;;;1.30;1.20;;;;;;;;;;4995844;28;20026;-31
2023/10/16 01:29:07;;;;;;;1.15;1.15;;;;;;;;;;4995515;28;20061;-34
2023/10/16 01:31:37;;;;;;;1.38;1.27;;;;;;;;;;4995492;28;20022;-28
2023/10/16 01:34:04;;;;;;;1.48;1.38;;;;;;;;;;4995792;28;20097;-28
2023/10/16 01:36:33;;;;;;;0.90;0.90;;;;;;;;;;4995340;28;20026;-32
2023/10/16 01:39:05;;;;;;;1.38;1.27;;;;;;;;;;4995256;28;20050;-30
2023/10/16 01:41:31;;;;;;;1.27;1.17;;;;;;;;;;4995389;28;20465;-28
2023/10/16 01:43:59;;;;;;;1.55;1.45;;;;;;;;;;4995571;28;20041;-31
2023/10/16 01:46:25;;;;;;;1.02;1.02;;;;;;;;;;4995329;28;20442;-30
2023/10/16 01:48:51;;;;;;;1.38;1.30;;;;;;;;;;4995255;28;20049;-31
2023/10/16 01:51:20;;;;;;;1.25;1.25;;;;;;;;;;4995280;28;20109;-27
2023/10/16 01:53:47;;;;;;;1.00;1.00;;;;;;;;;;4995536;28;20105;-31
2023/10/16 01:56:14;;;;;;;1.30;1.30;;;;;;;;;;4995200;28;20034;-30
2023/10/16 01:58:43;;;;;;;1.23;1.15;;;;;;;;;;4995363;28;20030;-27
2023/10/16 02:01:13;;;;;;;1.58;1.48;;;;;;;;;;4995414;28;20035;-31
2023/10/16 02:03:43;;;;;;;1.02;1.02;;;;;;;;;;4995409;28;20352;-30
2023/10/16 02:06:11;;;;;;;1.33;1.20;;;;;;;;;;4995369;28;20026;-28
2023/10/16 02:08:37;;;;;;;0.80;0.80;;;;;;;;;;4995367;28;20339;-31
2023/10/16 02:11:04;;;;;;;1.00;1.00;;;;;;;;;;4995098;28;20022;-31
2023/10/16 02:13:36;;;;;;;1.00;1.00;;;;;;;;;;4995088;28;20026;-31
2023/10/16 02:16:06;;;;;;;1.23;1.20;;;;;;;;;;4995289;28;20035;-30
2023/10/16 02:18:41;;;;;;;1.30;1.30;;;;;;;;;;4994966;28;20019;-30
2023/10/16 02:21:14;;;;;;;1.17;1.17;;;;;;;;;;4995338;28;20350;-31
2023/10/16 02:23:40;;;;;;;1.17;1.17;;;;;;;;;;4995446;28;20464;-32
2023/10/16 02:26:06;;;;;;;1.38;1.27;;;;;;;;;;4999117;28;20030;-30
2023/10/16 02:28:33;;;;;;;0.93;0.93;;;;;;;;;;4999159;28;20371;-32
2023/10/16 02:31:16;;;;;;;1.00;1.00;;;;;;;;;;4998802;28;20105;-31
2023/10/16 02:33:54;;;;;;;1.08;1.08;;;;;;;;;;4999083;28;20022;-31
2023/10/16 02:36:21;;;;;;;1.10;1.10;;;;;;;;;;4999245;28;20022;-32
2023/10/16 02:38:47;;;;;;;1.00;1.00;;;;;;;;;;4998599;28;20050;-31
2023/10/16 02:41:15;;;;;;;1.00;1.00;;;;;;;;;;4998711;28;20023;-28
2023/10/16 02:43:41;;;;;;;1.30;1.25;;;;;;;;;;4998626;28;20034;-29
2023/10/16 02:46:11;;;;;;;0.98;0.98;;;;;;;;;;4998523;28;20023;-28
2023/10/16 02:48:41;;;;;;;2.67;1.10;;;;;;;;;;4998457;28;20033;-31
2023/10/16 02:51:09;;;;;;;1.60;1.50;;;;;;;;;;4998764;28;20068;-28
2023/10/16 02:53:36;;;;;;;0.85;0.85;;;;;;;;;;4998662;28;20026;-30
2023/10/16 02:56:08;;;;;;;1.50;1.40;;;;;;;;;;4998346;28;20492;-30
2023/10/16 02:58:54;;;;;;;1.48;1.30;;;;;;;;;;4998296;28;20065;-27
2023/10/16 03:01:21;;;;;;;1.15;1.10;;;;;;;;;;4998863;28;20340;-31
2023/10/16 03:03:48;;;;;;;1.05;1.05;;;;;;;;;;4998521;28;20022;-28
2023/10/16 03:06:15;;;;;;;1.25;1.20;;;;;;;;;;4998068;28;20132;-31
2023/10/16 03:08:48;;;;;;;1.00;1.00;;;;;;;;;;4998172;28;20366;-32
2023/10/16 03:11:14;;;;;;;0.95;0.95;;;;;;;;;;4998423;28;20038;-29
2023/10/16 03:13:43;;;;;;;1.23;1.13;;;;;;;;;;4997997;28;20018;-31
2023/10/16 03:16:16;;;;;;;1.25;1.15;;;;;;;;;;4997959;28;20038;-28
2023/10/16 03:18:47;;;;;;;1.45;1.35;;;;;;;;;;4998463;28;20038;-28
2023/10/16 03:23:47;;;;;;;1.05;1.05;;;;;;;;;;4998188;28;20022;-32
2023/10/16 03:26:25;;;;;;;1.60;1.50;;;;;;;;;;4998339;28;20045;-31
2023/10/16 03:28:52;;;;;;;1.13;1.13;;;;;;;;;;4998080;28;20292;-29
2023/10/16 03:31:18;;;;;;;1.02;0.93;;;;;;;;;;4980598;28;20481;-30
2023/10/16 03:33:44;;;;;;;0.90;0.90;;;;;;;;;;4997991;28;20026;-31
2023/10/16 03:36:11;;;;;;;0.90;0.90;;;;;;;;;;4997458;28;20346;-30
2023/10/16 03:38:38;;;;;;;1.77;1.67;;;;;;;;;;4997328;28;20038;-31
2023/10/16 03:41:11;;;;;;;1.10;1.10;;;;;;;;;;4980401;28;20037;-27
2023/10/16 03:43:42;;;;;;;0.82;0.82;;;;;;;;;;4997768;28;20030;-31
2023/10/16 03:46:10;;;;;;;0.82;0.82;;;;;;;;;;4997634;28;20029;-32
2023/10/16 03:48:38;;;;;;;1.30;1.20;;;;;;;;;;4997365;28;20038;-30
2023/10/16 03:51:06;;;;;;;1.00;1.00;;;;;;;;;;4997364;28;20382;-32
2023/10/16 03:53:32;;;;;;;1.02;1.02;;;;;;;;;;4997532;28;20022;-31
2023/10/16 03:55:59;;;;;;;1.20;1.20;;;;;;;;;;4980066;28;20030;-32
2023/10/16 03:58:26;;;;;;;1.17;1.08;;;;;;;;;;4997322;28;20110;-31
2023/10/16 04:00:53;;;;;;;0.90;0.90;;;;;;;;;;4997383;28;20398;-28
2023/10/16 04:03:22;;;;;;;0.90;0.90;;;;;;;;;;4997076;28;20366;-30
2023/10/16 04:05:49;;;;;;;1.08;1.08;;;;;;;;;;4979978;28;20041;-29
2023/10/16 04:08:18;;;;;;;1.00;1.00;;;;;;;;;;4996924;28;20038;-32
2023/10/16 04:10:48;;;;;;;1.10;1.10;;;;;;;;;;4996765;28;20072;-27
2023/10/16 04:13:26;;;;;;;0.82;0.82;;;;;;;;;;4997047;28;20060;-32
2023/10/16 04:18:31;;;;;;;1.02;1.02;;;;;;;;;;4996848;28;20058;-27
2023/10/16 04:23:53;;;;;;;1.23;1.23;;;;;;;;;;4973853;28;20062;-31
2023/10/16 04:29:28;;;;;;;1.02;1.02;;;;;;;;;;4996541;28;20035;-30
2023/10/16 04:31:55;;;;;;;1.70;1.00;;;;;;;;;;4993441;28;20514;-31
2023/10/16 04:50:37;;;;;;;1.50;1.08;;;;;;;;;;4996457;28;20136;-28
2023/10/16 05:03:43;;;;;;;1.58;1.00;;;;;;;;;;4996216;28;20026;-28
2023/10/16 05:14:22;;;;;;;2.85;1.45;;;;;;;;;;4995965;28;20030;-29
2023/10/16 05:22:09;;;;;;;2.60;1.10;;;;;;;;;;4995986;28;20040;-30
2023/10/16 06:14:20;;;;;;;1.70;0.82;;;;;;;;;;4975514;28;20150;-33
2023/10/16 06:16:53;;;;;;;2.17;1.20;;;;;;;;;;4975110;28;20030;-28
2023/10/16 06:19:19;;;;;;;2.30;1.77;;;;;;;;;;4975508;28;20023;-28
2023/10/16 06:21:46;;;;;;;2.40;1.38;;;;;;;;;;4975644;28;20023;-30
2023/10/16 06:24:25;;;;;;;1.30;0.95;;;;;;;;;;4975189;28;20098;-30
2023/10/16 06:26:59;;;;;;;2.78;1.35;;;;;;;;;;4975464;28;20436;-33
2023/10/16 06:29:35;;;;;;;5.78;1.75;;;;;;;;;;4975099;28;20026;-27
2023/10/16 06:32:06;;;;;;;3.45;0.95;;;;;;;;;;4975059;28;20018;-29
2023/10/16 06:34:33;;;;;;;;;;;;;;;;;;4975805;28;20034;-31
2023/10/16 06:37:05;;;;;;;2.88;1.23;;;;;;;;;;4975234;28;19906;-28
2023/10/16 06:39:35;;;;;;;2.53;1.23;;;;;;;;;;4975256;28;20050;-28
2023/10/16 06:42:03;;;;;;;6.97;1.57;;;;;;;;;;4975789;28;20027;-28
2023/10/16 06:44:31;;;;;;;2.88;1.35;;;;;;;;;;4974933;28;20085;-35
2023/10/16 06:47:01;;;;;;;1.65;1.25;;;;;;;;;;4975072;28;20034;-33
2023/10/16 06:49:35;;;;;;;10.60;1.50;;;;;;;;;;4975449;28;20019;-33
2023/10/16 06:52:04;;;;;;;4.25;1.30;;;;;;;;;;4975025;28;20037;-32
2023/10/16 06:54:31;;;;;;;3.38;1.50;;;;;;;;;;4975397;28;20362;-31
2023/10/16 06:57:04;;;;;;;1.40;1.00;;;;;;;;;;4975170;28;20042;-30
2023/10/16 06:59:31;;;;;;;6.80;1.25;;;;;;;;;;4975021;28;20042;-33
2023/10/16 07:01:57;;;;;;;2.67;1.38;;;;;;;;;;4974940;28;20166;-30
2023/10/16 07:04:24;;;;;;;2.33;1.52;;;;;;;;;;4974801;28;20144;-32
2023/10/16 07:06:50;;;;;;;5.25;1.00;;;;;;;;;;4975063;28;20027;-27
2023/10/16 07:09:16;;;;;;;7.72;2.42;;;;;;;;;;4974998;28;20038;-32
2023/10/16 07:11:43;;;;;;;1.55;1.13;;;;;;;;;;4977846;28;20023;-31
2023/10/16 07:14:17;;;;;;;7.60;1.20;;;;;;;;;;4978868;28;20350;-28
2023/10/16 07:16:43;;;;;;;3.78;1.75;;;;;;;;;;4978243;28;20050;-31
2023/10/16 07:19:16;;;;;;;4.03;1.33;;;;;;;;;;4978132;28;20458;-28
2023/10/16 07:21:48;;;;;;;1.83;1.40;;;;;;;;;;4978204;28;20085;-32
2023/10/16 07:24:15;;;;;;;3.50;1.23;;;;;;;;;;4978085;28;20031;-33
2023/10/16 07:26:42;;;;;;;8.23;1.35;;;;;;;;;;4977979;28;20031;-29
2023/10/16 07:29:08;;;;;;;3.92;1.10;;;;;;;;;;4978298;28;20031;-32
2023/10/16 07:31:34;;;;;;;9.02;2.65;;;;;;;;;;4978056;28;20073;-29
2023/10/16 07:34:04;;;;;;;8.57;2.30;;;;;;;;;;4978163;28;20031;-33
2023/10/16 07:36:30;;;;;;;6.28;1.42;;;;;;;;;;4977925;28;20045;-31
2023/10/16 07:38:57;;;;;;;3.58;1.45;;;;;;;;;;4978838;28;20031;-35
2023/10/16 07:41:26;;;;;;;3.97;1.23;;;;;;;;;;4978336;28;20034;-28
2023/10/16 07:43:56;;;;;;;1.40;1.30;;;;;;;;;;4977734;28;20029;-34
2023/10/16 07:46:29;;;;;;;2.88;2.05;;;;;;;;;;4977755;28;20038;-32
2023/10/16 07:48:57;;;;;;;9.88;1.42;;;;;;;;;;4978018;28;20046;-35
2023/10/16 07:51:25;;;;;;;3.03;1.15;;;;;;;;;;4978089;28;20101;-31
2023/10/16 07:53:51;;;;;;;9.70;1.92;;;;;;;;;;4977711;28;20031;-32
2023/10/16 07:58:54;;;;;;;1.60;1.20;;;;;;;;;;4978164;28;20030;-31
2023/10/16 08:01:36;;;;;;;4.50;1.30;;;;;;;;;;4977864;28;20406;-31
2023/10/16 08:04:05;;;;;;;2.15;1.20;;;;;;;;;;4977265;28;20106;-29
2023/10/16 08:06:32;;;;;;;4.38;1.65;;;;;;;;;;4977425;28;20042;-35
2023/10/16 08:11:43;;;;;;;2.25;1.15;;;;;;;;;;4977669;28;20073;-31
2023/10/16 08:14:10;;;;;;;12.23;1.83;;;;;;;;;;4977400;28;20022;-28
2023/10/16 08:16:39;;;;;;;4.43;1.30;;;;;;;;;;4977315;28;20031;-33
2023/10/16 08:19:15;;;;;;;2.95;1.90;;;;;;;;;;4977068;28;20030;-36
2023/10/16 08:21:45;;;;;;;2.10;1.17;;;;;;;;;;4977797;28;20018;-33
2023/10/16 08:24:13;;;;;;;12.13;1.17;;;;;;;;;;4977200;28;20022;-31
2023/10/16 08:26:43;;;;;;;3.65;1.10;;;;;;;;;;4977098;28;20015;-31
2023/10/16 08:29:17;;;;;;;5.82;1.55;;;;;;;;;;4977309;28;20030;-29
2023/10/16 08:31:44;;;;;;;7.05;1.45;;;;;;;;;;4976853;28;20090;-28
2023/10/16 08:34:12;;;;;;;4.35;1.63;;;;;;;;;;4977569;28;20346;-34
2023/10/16 08:36:39;;;;;;;6.18;1.52;;;;;;;;;;4976861;28;20033;-31
2023/10/16 08:39:15;;;;;;;6.82;1.23;;;;;;;;;;4976869;28;20043;-29
2023/10/16 08:42:24;;;;;;;9.75;1.73;;;;;;;;;;4977057;28;20039;-27
2023/10/16 08:44:31;;;;;;;13.35;1.85;;;;;;;;;;4961510;28;20027;-33
2023/10/16 08:49:24;;;;;;;7.57;1.40;;;;;;;;;;4976732;28;20058;-33
2023/10/16 08:51:53;;;;;;;3.92;1.25;;;;;;;;;;4976829;28;20026;-32
2023/10/16 08:57:08;;;;;;;4.72;1.55;;;;;;;;;;4976804;28;20041;-32
2023/10/16 08:59:35;;;;;;;6.95;1.00;;;;;;;;;;4976529;28;20102;-34
2023/10/16 09:02:02;;;;;;;3.15;1.30;;;;;;;;;;4976360;28;20039;-32
2023/10/16 09:04:28;;;;;;;5.25;1.63;;;;;;;;;;4976283;28;20126;-32
2023/10/16 09:06:55;;;;;;;7.32;1.50;;;;;;;;;;4976309;28;20038;-36
2023/10/16 09:09:25;;;;;;;3.50;1.33;;;;;;;;;;4959290;28;20027;-29
2023/10/16 09:12:10;;;;;;;4.35;1.33;;;;;;;;;;4976320;28;20058;-32
2023/10/16 09:14:38;;;;;;;6.53;2.03;;;;;;;;;;4976590;28;20107;-37
2023/10/16 09:17:06;;;;;;;5.47;1.73;;;;;;;;;;4976384;28;20041;-29
2023/10/16 09:19:35;;;;;;;8.57;2.55;;;;;;;;;;4976140;28;20019;-32
2023/10/16 09:22:08;;;;;;;2.25;1.42;;;;;;;;;;4976055;28;20034;-35
2023/10/16 09:24:35;;;;;;;7.53;1.20;;;;;;;;;;4976228;28;20409;-29
2023/10/16 09:27:30;;;;;;;3.75;1.60;;;;;;;;;;4976322;28;20046;-28
2023/10/16 09:29:53;;;;;;;2.28;1.23;;;;;;;;;;4975374;28;20042;-30
2023/10/16 09:32:46;;;;;;;10.15;1.40;;;;;;;;;;4975716;28;20034;-29
2023/10/16 09:35:12;;;;;;;7.93;2.70;;;;;;;;;;4973268;28;20046;-29
2023/10/16 09:37:38;;;;;;;5.95;1.20;;;;;;;;;;4975643;28;20030;-34
2023/10/16 09:40:18;;;;;;;10.60;1.30;;;;;;;;;;4975965;28;20019;-31
2023/10/16 09:42:55;;;;;;;7.80;1.35;;;;;;;;;;4975898;28;20049;-32
2023/10/16 09:45:22;;;;;;;8.18;1.40;;;;;;;;;;4975680;28;20026;-32
2023/10/16 09:47:48;;;;;;;7.20;1.98;;;;;;;;;;4976006;28;20023;-29
2023/10/16 09:50:18;;;;;;;4.40;1.30;;;;;;;;;;4976415;28;20039;-33
2023/10/16 09:52:45;;;;;;;5.67;1.47;;;;;;;;;;4975741;28;20361;-30
2023/10/16 09:55:12;;;;;;;2.90;1.20;;;;;;;;;;4975721;28;20098;-33
2023/10/16 09:57:46;;;;;;;7.13;1.67;;;;;;;;;;4975446;28;20037;-28
2023/10/16 10:03:09;;;;;;;3.47;1.27;;;;;;;;;;4975637;28;20051;-30
2023/10/16 10:08:27;;;;;;;6.93;1.17;;;;;;;;;;4975613;28;20377;-32
2023/10/16 10:13:45;;;;;;;3.50;1.20;;;;;;;;;;4975635;28;20065;-33
2023/10/16 10:16:19;;;;;;;4.22;1.30;;;;;;;;;;4975379;28;20038;-27
2023/10/16 10:18:47;;;;;;;4.63;1.10;;;;;;;;;;4975674;28;20057;-32
2023/10/16 10:21:18;;;;;;;7.72;1.83;;;;;;;;;;4975680;28;20046;-33
2023/10/16 10:23:44;;;;;;;;;;;;;;;;;;4976029;28;20101;-33
2023/10/16 10:26:11;;;;;;;4.25;1.35;;;;;;;;;;4975935;28;20321;-33
2023/10/16 10:28:41;;;;;;;6.45;1.70;;;;;;;;;;4975346;28;20027;-33
2023/10/16 10:31:07;;;;;;;8.50;1.95;;;;;;;;;;4975191;28;20037;-32
2023/10/16 10:33:36;;;;;;;7.43;1.55;;;;;;;;;;4975519;28;20026;-34
2023/10/16 10:36:21;;;;;;;4.45;1.80;;;;;;;;;;4975279;28;20023;-30
2023/10/16 10:38:47;;;;;;;4.30;1.63;;;;;;;;;;4975088;28;20031;-28
2023/10/16 10:41:14;;;;;;;6.45;1.85;;;;;;;;;;4975466;28;20019;-32
2023/10/16 10:43:46;;;;;;;4.03;1.35;;;;;;;;;;4975165;28;20022;-32
2023/10/16 10:46:12;;;;;;;9.20;2.50;;;;;;;;;;4977949;28;20050;-33
2023/10/16 10:48:46;;;;;;;5.30;1.23;;;;;;;;;;4978989;28;20027;-33
2023/10/16 10:51:15;;;;;;;11.50;2.40;;;;;;;;;;4979325;28;20101;-35
2023/10/16 10:54:08;;;;;;;8.40;1.65;;;;;;;;;;4978724;28;20023;-31
2023/10/16 10:56:53;;;;;;;3.58;1.23;;;;;;;;;;4977213;28;20063;-33
2023/10/16 10:59:41;;;;;;;5.45;1.50;;;;;;;;;;4978977;28;20022;-33
2023/10/16 11:04:46;;;;;;;10.82;2.42;;;;;;;;;;4978670;28;20046;-32
2023/10/16 11:07:12;;;;;;;8.80;1.65;;;;;;;;;;4978674;28;20038;-34
2023/10/16 11:09:39;;;;;;;9.75;1.65;;;;;;;;;;4978569;28;20034;-33
2023/10/16 11:12:08;;;;;;;3.70;1.30;;;;;;;;;;4978699;28;20027;-30
2023/10/16 11:14:36;;;;;;;12.45;2.33;;;;;;;;;;4979108;28;20026;-30
2023/10/16 11:17:05;;;;;;;9.27;2.53;;;;;;;;;;4978645;28;20034;-28
2023/10/16 11:19:47;;;;;;;3.33;1.42;;;;;;;;;;4978451;28;20336;-31
2023/10/16 11:22:21;;;;;;;4.80;1.45;;;;;;;;;;4978509;28;20096;-32
2023/10/16 11:24:47;;;;;;;3.70;1.70;;;;;;;;;;4978574;28;20027;-30
2023/10/16 11:27:16;;;;;;;5.65;1.45;;;;;;;;;;4978323;28;20419;-29
2023/10/16 11:29:45;;;;;;;6.55;1.42;;;;;;;;;;4978970;28;20082;-31
2023/10/16 11:32:14;;;;;;;5.53;1.67;;;;;;;;;;4978325;28;20026;-32
2023/10/16 11:34:41;;;;;;;5.40;1.73;;;;;;;;;;4978039;28;20038;-34
2023/10/16 11:37:12;;;;;;;7.50;3.45;;;;;;;;;;4977818;28;20082;-35
2023/10/16 11:39:38;;;;;;;8.38;2.15;;;;;;;;;;4978077;28;20481;-32
2023/10/16 11:42:05;;;;;;;9.82;1.95;;;;;;;;;;4977838;28;20122;-31
2023/10/16 11:44:37;;;;;;;6.40;1.60;;;;;;;;;;4978489;28;20023;-35
2023/10/16 11:47:18;;;;;;;3.80;1.05;;;;;;;;;;4977826;28;20027;-31
2023/10/16 11:49:57;;;;;;;4.15;1.20;;;;;;;;;;4977813;28;20034;-33
2023/10/16 11:52:27;;;;;;;5.60;1.70;;;;;;;;;;4978083;28;20418;-36
2023/10/16 11:54:56;;;;;;;4.20;1.45;;;;;;;;;;4977976;28;20027;-32
2023/10/16 11:57:23;;;;;;;6.22;1.38;;;;;;;;;;4977457;28;20342;-32
2023/10/16 11:59:51;;;;;;;6.70;1.38;;;;;;;;;;4977672;28;20023;-30
2023/10/16 12:02:23;;;;;;;4.15;2.55;;;;;;;;;;4977381;28;20029;-33
2023/10/16 12:04:50;;;;;;;6.90;1.45;;;;;;;;;;4977543;28;20023;-33
2023/10/16 12:07:16;;;;;;;7.88;1.30;;;;;;;;;;4977353;28;20047;-32
2023/10/16 12:09:42;;;;;;;5.35;1.50;;;;;;;;;;4977497;28;20023;-32
2023/10/16 12:12:19;;;;;;;5.70;1.27;;;;;;;;;;4977182;28;20027;-33
2023/10/16 12:14:47;;;;;;;6.07;1.63;;;;;;;;;;4977640;28;20031;-32
2023/10/16 12:17:15;;;;;;;6.00;1.65;;;;;;;;;;4977228;28;20027;-34
2023/10/16 12:19:41;;;;;;;7.05;1.60;;;;;;;;;;4977585;28;20447;-30
2023/10/16 12:22:08;;;;;;;5.70;2.20;;;;;;;;;;4977441;28;20026;-31
2023/10/16 12:24:35;;;;;;;8.57;1.50;;;;;;;;;;4977396;28;20521;-33
2023/10/16 12:27:04;;;;;;;5.70;1.88;;;;;;;;;;4977148;28;20097;-33
2023/10/16 12:29:31;;;;;;;7.53;1.35;;;;;;;;;;4977039;28;20034;-32
2023/10/16 12:32:00;;;;;;;7.95;2.75;;;;;;;;;;4977183;28;20022;-33
2023/10/16 12:34:31;;;;;;;3.85;1.70;;;;;;;;;;4976942;28;20019;-30
2023/10/16 12:36:57;;;;;;;4.82;1.23;;;;;;;;;;4977118;28;20094;-34
2023/10/16 12:39:27;;;;;;;3.35;1.40;;;;;;;;;;4976710;28;20031;-32
2023/10/16 12:41:54;;;;;;;8.77;2.58;;;;;;;;;;4976633;28;20027;-32
2023/10/16 12:44:20;;;;;;;5.60;1.40;;;;;;;;;;4977116;28;20034;-31
2023/10/16 12:46:46;;;;;;;6.55;1.85;;;;;;;;;;4977077;28;20082;-34
2023/10/16 12:49:13;;;;;;;6.15;1.80;;;;;;;;;;4976968;28;20336;-34
2023/10/16 12:51:40;;;;;;;16.38;1.70;;;;;;;;;;4976896;28;20089;-29
2023/10/16 12:54:06;;;;;;;2.65;1.40;;;;;;;;;;4977575;28;20398;-33
2023/10/16 12:56:35;;;;;;;9.52;1.80;;;;;;;;;;4976638;28;20023;-31
2023/10/16 12:59:01;;;;;;;5.55;1.70;;;;;;;;;;4976375;28;20108;-34
2023/10/16 13:01:27;;;;;;;4.03;1.98;;;;;;;;;;4976480;28;20019;-31
2023/10/16 13:03:59;;;;;;;4.43;1.80;;;;;;;;;;4976217;28;20054;-28
2023/10/16 13:06:29;;;;;;;11.48;1.42;;;;;;;;;;4976729;28;20026;-31
2023/10/16 13:08:56;;;;;;;4.60;2.55;;;;;;;;;;4975615;28;20027;-34
2023/10/16 13:11:22;;;;;;;7.20;2.03;;;;;;;;;;4976151;28;20085;-31
2023/10/16 13:13:48;;;;;;;2.80;1.50;;;;;;;;;;4976293;28;20053;-30
2023/10/16 13:16:24;;;;;;;7.32;1.98;;;;;;;;;;4976179;28;20031;-33
2023/10/16 13:18:59;;;;;;;3.90;1.10;;;;;;;;;;4976236;28;20370;-31
2023/10/16 13:21:35;;;;;;;7.60;1.55;;;;;;;;;;4976250;28;20030;-32
2023/10/16 13:24:09;;;;;;;6.07;1.83;;;;;;;;;;4976045;28;20030;-35
2023/10/16 13:26:38;;;;;;;13.13;1.42;;;;;;;;;;4975905;28;20098;-30
2023/10/16 13:29:08;;;;;;;6.70;1.35;;;;;;;;;;4976220;28;20347;-29
2023/10/16 13:31:40;;;;;;;14.82;2.22;;;;;;;;;;4976435;28;20082;-31
2023/10/16 13:34:10;;;;;;;7.60;1.70;;;;;;;;;;4975702;28;20034;-32
2023/10/16 13:36:56;;;;;;;5.17;2.10;;;;;;;;;;4975872;28;20045;-31
2023/10/16 13:39:25;;;;;;;8.05;3.33;;;;;;;;;;4975618;28;20031;-32
2023/10/16 13:41:52;;;;;;;6.55;1.80;;;;;;;;;;4976229;28;20062;-33
2023/10/16 13:44:19;;;;;;;10.15;2.15;;;;;;;;;;4975773;28;20033;-32
2023/10/16 13:46:46;;;;;;;18.42;3.67;;;;;;;;;;4975788;28;20031;-32
2023/10/16 13:49:14;;;;;;;4.53;1.92;;;;;;;;;;4976105;28;20027;-30
2023/10/16 13:51:41;;;;;;;7.60;1.73;;;;;;;;;;4975817;28;20481;-31
2023/10/16 13:54:11;;;;;;;5.07;1.20;;;;;;;;;;4975635;28;20038;-32
2023/10/16 13:56:41;;;;;;;10.18;1.73;;;;;;;;;;4975524;28;20058;-31
2023/10/16 13:59:08;;;;;;;5.55;1.77;;;;;;;;;;4976496;28;20039;-30
2023/10/16 14:01:42;;;;;;;13.38;2.00;;;;;;;;;;4975605;28;20073;-33
2023/10/16 14:04:16;;;;;;;4.20;1.58;;;;;;;;;;4975590;28;20117;-32
2023/10/16 14:06:51;;;;;;;4.43;2.42;;;;;;;;;;4975736;28;20528;-34
2023/10/16 14:09:19;;;;;;;5.50;2.08;;;;;;;;;;4975646;28;20062;-27
2023/10/16 14:11:49;;;;;;;6.10;1.58;;;;;;;;;;4975296;28;20034;-32
2023/10/16 14:14:19;;;;;;;4.07;1.38;;;;;;;;;;4958195;28;20529;-31
2023/10/16 14:16:52;;;;;;;3.85;1.60;;;;;;;;;;4975395;28;20089;-30
2023/10/16 14:19:22;;;;;;;9.90;2.10;;;;;;;;;;4976739;28;20340;-29
2023/10/16 14:21:52;;;;;;;2.38;1.10;;;;;;;;;;4979116;28;20031;-33
2023/10/16 14:24:24;;;;;;;10.10;1.70;;;;;;;;;;4979272;28;20038;-33
2023/10/16 14:26:59;;;;;;;6.80;1.83;;;;;;;;;;4979235;28;20058;-32
2023/10/16 14:29:26;;;;;;;13.50;2.40;;;;;;;;;;4979761;28;20031;-31
2023/10/16 14:31:55;;;;;;;12.55;2.00;;;;;;;;;;4979038;28;20027;-33
2023/10/16 14:34:25;;;;;;;9.82;2.28;;;;;;;;;;4979070;28;20038;-28
2023/10/16 14:36:54;;;;;;;3.08;1.45;;;;;;;;;;4979389;28;20023;-28
2023/10/16 14:39:39;;;;;;;4.97;1.60;;;;;;;;;;4978951;28;20026;-31
2023/10/16 14:42:09;;;;;;;3.65;2.17;;;;;;;;;;4979218;28;20047;-29
2023/10/16 14:44:40;;;;;;;7.63;1.50;;;;;;;;;;4978973;28;20026;-32
2023/10/16 14:47:09;;;;;;;3.72;2.95;;;;;;;;;;4979149;28;20037;-31
2023/10/16 14:49:35;;;;;;;4.72;1.67;;;;;;;;;;4978884;28;20023;-34
2023/10/16 14:52:02;;;;;;;2.28;1.35;;;;;;;;;;4978876;28;20411;-34
2023/10/16 14:54:29;;;;;;;6.18;2.42;;;;;;;;;;4979067;28;20055;-35
2023/10/16 14:57:00;;;;;;;2.90;1.73;;;;;;;;;;4978694;28;20062;-30
2023/10/16 14:59:26;;;;;;;4.75;1.25;;;;;;;;;;4978899;28;20030;-32
2023/10/16 15:01:54;;;;;;;5.20;1.38;;;;;;;;;;4978817;28;20358;-31
2023/10/16 15:04:25;;;;;;;8.35;2.05;;;;;;;;;;4978398;28;20046;-31
2023/10/16 15:06:52;;;;;;;3.20;1.20;;;;;;;;;;4978834;28;20031;-28
2023/10/16 15:09:18;;;;;;;6.28;2.03;;;;;;;;;;4978433;28;20050;-34
2023/10/16 15:11:45;;;;;;;5.38;1.20;;;;;;;;;;4978871;28;20033;-26
2023/10/16 15:14:12;;;;;;;3.45;1.30;;;;;;;;;;4978309;28;20133;-28
2023/10/16 15:16:41;;;;;;;5.40;1.83;;;;;;;;;;4978339;28;20030;-31
2023/10/16 15:19:08;;;;;;;4.22;2.30;;;;;;;;;;4978466;28;20022;-29
2023/10/16 15:21:35;;;;;;;4.53;1.60;;;;;;;;;;4978501;28;20450;-30
2023/10/16 15:24:04;;;;;;;6.57;1.35;;;;;;;;;;4978209;28;20022;-33
2023/10/16 15:26:33;;;;;;;6.07;1.70;;;;;;;;;;4978256;28;20102;-33
2023/10/16 15:29:00;;;;;;;6.25;1.50;;;;;;;;;;4978197;28;20039;-29
2023/10/16 15:31:28;;;;;;;4.32;1.60;;;;;;;;;;4977949;28;20027;-32
2023/10/16 15:33:54;;;;;;;9.57;1.45;;;;;;;;;;4978690;28;20110;-32
2023/10/16 15:36:21;;;;;;;6.18;2.05;;;;;;;;;;4977861;28;20058;-28
2023/10/16 15:38:47;;;;;;;1.60;1.40;;;;;;;;;;4977691;28;20043;-28
2023/10/16 15:41:13;;;;;;;4.63;1.75;;;;;;;;;;4977683;28;20038;-33
2023/10/16 15:43:43;;;;;;;4.72;1.45;;;;;;;;;;4977695;28;20027;-33
2023/10/16 15:46:22;;;;;;;7.07;1.73;;;;;;;;;;4978199;28;20026;-30
2023/10/16 15:48:48;;;;;;;3.42;1.85;;;;;;;;;;4978066;28;20088;-35
2023/10/16 15:51:15;;;;;;;4.88;2.75;;;;;;;;;;4977575;28;20372;-29
2023/10/16 15:53:45;;;;;;;7.43;1.50;;;;;;;;;;4978153;28;20031;-33
2023/10/16 15:56:12;;;;;;;5.57;1.35;;;;;;;;;;4977640;28;20037;-28
2023/10/16 15:58:38;;;;;;;3.33;1.83;;;;;;;;;;4977728;28;20031;-30
2023/10/16 16:01:07;;;;;;;4.03;1.35;;;;;;;;;;4977541;28;20027;-35
2023/10/16 16:03:33;;;;;;;3.13;1.50;;;;;;;;;;4977592;28;20117;-34
2023/10/16 16:06:00;;;;;;;6.88;2.50;;;;;;;;;;4977692;28;20027;-33
2023/10/16 16:08:31;;;;;;;6.85;1.75;;;;;;;;;;4977903;28;20027;-32
2023/10/16 16:10:59;;;;;;;6.93;1.67;;;;;;;;;;4977546;28;20027;-33
2023/10/16 16:13:28;;;;;;;8.18;1.73;;;;;;;;;;4977576;28;20038;-32
2023/10/16 16:16:00;;;;;;;5.45;1.52;;;;;;;;;;4978071;28;20029;-32
2023/10/16 16:18:27;;;;;;;9.93;2.25;;;;;;;;;;4977692;28;20030;-30
2023/10/16 16:20:53;;;;;;;4.30;1.70;;;;;;;;;;4977656;28;20023;-31
2023/10/16 16:23:20;;;;;;;9.45;1.85;;;;;;;;;;4977584;28;20161;-32
2023/10/16 16:25:49;;;;;;;3.55;1.20;;;;;;;;;;4977547;28;20045;-31
2023/10/16 16:28:17;;;;;;;3.95;1.90;;;;;;;;;;4977524;28;20106;-34
2023/10/16 16:30:43;;;;;;;3.92;1.33;;;;;;;;;;4977181;28;20114;-29
2023/10/16 16:33:09;;;;;;;2.92;1.42;;;;;;;;;;4977193;28;20101;-29
2023/10/16 16:35:36;;;;;;;2.97;1.70;;;;;;;;;;4977412;28;20061;-32
2023/10/16 16:38:08;;;;;;;7.40;1.40;;;;;;;;;;4976967;28;20074;-32
2023/10/16 16:40:34;;;;;;;7.35;1.63;;;;;;;;;;4977413;28;20477;-30
2023/10/16 16:43:01;;;;;;;3.55;1.77;;;;;;;;;;4977190;28;20097;-29
2023/10/16 16:45:28;;;;;;;6.45;1.42;;;;;;;;;;4977004;28;20027;-31
2023/10/16 16:47:54;;;;;;;2.42;1.30;;;;;;;;;;4976924;28;20466;-33
2023/10/16 16:50:24;;;;;;;2.45;1.42;;;;;;;;;;4977173;28;20042;-32
2023/10/16 16:52:51;;;;;;;1.88;1.23;;;;;;;;;;4976678;28;20031;-30
2023/10/16 16:55:18;;;;;;;10.38;1.63;;;;;;;;;;4976648;28;20023;-30
2023/10/16 16:57:44;;;;;;;3.03;1.60;;;;;;;;;;4977215;28;20089;-31
2023/10/16 17:00:12;;;;;;;4.75;1.60;;;;;;;;;;4976640;28;20051;-29
2023/10/16 17:02:39;;;;;;;7.82;2.03;;;;;;;;;;4957866;28;20035;-31